Time;durP1;ratioP1;P1;durP2;ratioP2;P2;SDS_P1;SDS_P2;PMS_P1;PMS_P2;Temp;Humidity;BMP_temperature;BMP_pressure;BME280_temperature;BME280_humidity;BME280_pressure;Samples;Min_cycle;Max_cycle;Signal;HPM_P1;HPM_P2
2023/12/01 00:02:00;;;;;;;;;;;4.40;99.90;;;;;;2616296;54;20444;-69
2023/12/01 00:04:30;;;;;;;;;;;4.40;99.90;;;;;;2616726;39;20330;-69
2023/12/01 00:07:02;;;;;;;;;;;4.40;99.90;;;;;;2617214;47;19946;-69
2023/12/01 00:09:32;;;;;;;;;;;4.50;99.90;;;;;;2616578;46;20054;-69
2023/12/01 00:12:02;;;;;;;;;;;4.50;99.90;;;;;;2616747;54;19947;-69
2023/12/01 00:14:32;;;;;;;;;;;4.50;99.90;;;;;;2617140;54;19954;-70
2023/12/01 00:17:02;;;;;;;;;;;4.50;99.90;;;;;;2616640;47;19947;-69
2023/12/01 00:19:32;;;;;;;;;;;4.50;99.90;;;;;;2615792;54;19958;-69
2023/12/01 00:22:05;;;;;;;;;;;4.50;99.90;;;;;;2616759;54;20391;-69
2023/12/01 00:24:34;;;;;;;;;;;4.40;99.90;;;;;;2617282;39;20372;-69
2023/12/01 00:27:05;;;;;;;;;;;4.50;99.90;;;;;;2617167;39;20093;-69
2023/12/01 00:29:34;;;;;;;;;;;4.40;99.90;;;;;;2617328;54;19947;-69
2023/12/01 00:32:04;;;;;;;;;;;4.40;99.90;;;;;;2615948;47;19938;-68
2023/12/01 00:34:34;;;;;;;;;;;4.60;99.90;;;;;;2616896;47;19942;-68
2023/12/01 00:37:06;;;;;;;;;;;4.40;99.90;;;;;;2617523;39;20369;-69
2023/12/01 00:39:36;;;;;;;;;;;4.50;99.90;;;;;;2616411;54;19993;-69
2023/12/01 00:42:06;;;;;;;;;;;4.50;99.90;;;;;;2617393;54;19947;-70
2023/12/01 00:44:36;;;;;;;;;;;4.50;99.90;;;;;;2617082;54;19968;-70
2023/12/01 00:47:06;;;;;;;;;;;4.50;99.90;;;;;;2616521;54;19938;-68
2023/12/01 00:49:35;;;;;;;;;;;4.40;99.90;;;;;;2616052;47;19946;-68
2023/12/01 00:52:08;;;;;;;;;;;4.40;99.90;;;;;;2616523;49;20066;-68
2023/12/01 00:54:37;;;;;;;;;;;4.40;99.90;;;;;;2616817;54;19946;-68
2023/12/01 00:57:07;;;;;;;;;;;4.40;99.90;;;;;;2617087;39;20470;-69
2023/12/01 00:59:37;;;;;;;;;;;4.40;99.90;;;;;;2616877;54;19947;-69
2023/12/01 01:02:08;;;;;;;;;;;4.40;99.90;;;;;;2616519;54;19945;-68
2023/12/01 01:04:38;;;;;;;;;;;4.40;99.90;;;;;;2616658;54;19953;-69
2023/12/01 01:07:10;;;;;;;;;;;4.40;99.90;;;;;;2617095;47;20496;-69
2023/12/01 01:09:40;;;;;;;;;;;4.40;99.90;;;;;;2616342;54;19953;-69
2023/12/01 01:12:09;;;;;;;;;;;4.40;99.90;;;;;;2616565;47;20677;-69
2023/12/01 01:14:39;;;;;;;;;;;4.30;99.90;;;;;;2616305;47;19939;-70
2023/12/01 01:17:09;;;;;;;;;;;4.30;99.90;;;;;;2616539;54;19950;-69
2023/12/01 01:19:38;;;;;;;;;;;4.30;99.90;;;;;;2616195;47;19953;-69
2023/12/01 01:22:10;;;;;;;;;;;4.30;99.90;;;;;;2617234;47;19938;-69
2023/12/01 01:24:40;;;;;;;;;;;4.30;99.90;;;;;;2616474;54;20472;-69
2023/12/01 01:27:10;;;;;;;;;;;4.20;99.90;;;;;;2615451;54;19950;-69
2023/12/01 01:29:39;;;;;;;;;;;4.20;99.90;;;;;;2617003;54;19977;-69
2023/12/01 01:32:09;;;;;;;;;;;4.10;99.90;;;;;;2615318;53;19977;-69
2023/12/01 01:34:39;;;;;;;;;;;4.10;99.90;;;;;;2615560;50;19947;-69
2023/12/01 01:37:11;;;;;;;;;;;4.00;99.90;;;;;;2616858;54;19946;-68
2023/12/01 01:39:40;;;;;;;;;;;4.00;99.90;;;;;;2616966;39;20373;-68
2023/12/01 01:42:10;;;;;;;;;;;3.80;99.90;;;;;;2616859;54;19978;-68
2023/12/01 01:44:40;;;;;;;;;;;3.80;99.90;;;;;;2616028;47;19973;-69
2023/12/01 01:47:09;;;;;;;;;;;3.80;99.90;;;;;;2615813;47;19938;-69
2023/12/01 01:49:39;;;;;;;;;;;3.80;99.90;;;;;;2616889;54;19954;-68
2023/12/01 01:52:12;;;;;;;;;;;3.70;99.90;;;;;;2617278;54;19946;-69
2023/12/01 01:54:42;;;;;;;;;;;3.60;99.90;;;;;;2616800;47;19990;-68
2023/12/01 01:57:12;;;;;;;;;;;3.60;99.90;;;;;;2615894;47;19947;-70
2023/12/01 01:59:41;;;;;;;;;;;3.60;99.90;;;;;;2616795;39;20380;-69
2023/12/01 02:02:11;;;;;;;;;;;3.60;99.90;;;;;;2615925;54;20426;-69
2023/12/01 02:04:41;;;;;;;;;;;3.60;99.90;;;;;;2616342;50;19942;-69
2023/12/01 02:07:25;;;;;;;;;;;3.60;99.90;;;;;;2616627;47;19946;-68
2023/12/01 02:09:55;;;;;;;;;;;3.60;99.90;;;;;;2616663;39;20461;-68
2023/12/01 02:12:24;;;;;;;;;;;3.60;99.90;;;;;;2616793;47;19977;-69
2023/12/01 02:14:54;;;;;;;;;;;3.60;99.90;;;;;;2617341;47;20444;-68
2023/12/01 02:17:24;;;;;;;;;;;4.80;99.90;;;;;;2616288;54;19942;-69
2023/12/01 02:19:54;;;;;;;;;;;3.50;99.90;;;;;;2616259;54;19947;-68
2023/12/01 02:22:27;;;;;;;;;;;3.50;99.90;;;;;;2613377;54;19951;-68
2023/12/01 02:24:57;;;;;;;;;;;3.50;99.90;;;;;;2611067;54;20468;-69
2023/12/01 05:17:07;;;;;;;;;;;3.50;99.90;;;;;;2608164;46;20171;31
2023/12/01 05:19:37;;;;;;;;;;;3.30;99.90;;;;;;2631776;39;20568;-80
2023/12/01 05:22:07;;;;;;;;;;;3.30;99.90;;;;;;2629089;47;19951;-81
2023/12/01 05:24:38;;;;;;;;;;;3.30;99.90;;;;;;2629758;47;19961;-84
2023/12/01 05:27:08;;;;;;;;;;;3.20;99.90;;;;;;2629617;47;20531;-83
2023/12/01 05:29:38;;;;;;;;;;;3.20;99.90;;;;;;2629518;47;19952;-82
2023/12/01 05:32:11;;;;;;;;;;;3.10;99.90;;;;;;2629607;54;19942;-81
2023/12/01 05:34:42;;;;;;;;;;;3.10;99.90;;;;;;2629538;47;19927;-82
2023/12/01 05:37:12;;;;;;;;;;;3.20;99.90;;;;;;2629482;54;19965;-80
2023/12/01 05:39:42;;;;;;;;;;;4.10;99.90;;;;;;2629834;47;19943;-83
2023/12/01 05:42:12;;;;;;;;;;;3.20;99.90;;;;;;2629479;47;19943;-82
2023/12/01 05:44:42;;;;;;;;;;;3.50;99.90;;;;;;2629248;47;19954;-81
2023/12/01 05:47:15;;;;;;;;;;;3.50;99.90;;;;;;2629483;47;19952;-80
2023/12/01 05:49:44;;;;;;;;;;;3.20;99.90;;;;;;2637131;39;20668;-80
2023/12/01 05:52:14;;;;;;;;;;;3.20;99.90;;;;;;2628982;47;19976;-83
2023/12/01 05:54:44;;;;;;;;;;;3.30;99.90;;;;;;2629166;47;19927;-79
2023/12/01 05:57:17;;;;;;;;;;;3.60;99.90;;;;;;2629179;46;19943;-81
2023/12/01 05:59:46;;;;;;;;;;;3.30;99.90;;;;;;2630023;46;19984;-81
2023/12/01 06:02:19;;;;;;;;;;;3.30;99.90;;;;;;2629550;46;20062;-82
2023/12/01 06:04:49;;;;;;;;;;;3.40;99.90;;;;;;2629667;47;19934;-84
2023/12/01 06:07:22;;;;;;;;;;;3.50;99.90;;;;;;2630420;46;19980;-82
2023/12/01 06:10:12;;;;;;;;;;;3.40;99.90;;;;;;2628924;46;19954;-82
2023/12/01 06:13:03;;;;;;;;;;;3.40;99.90;;;;;;2629083;46;19943;-81
2023/12/01 06:15:42;;;;;;;;;;;3.20;99.90;;;;;;2629518;47;19938;-82
2023/12/01 06:18:14;;;;;;;;;;;3.20;99.90;;;;;;2629531;47;19934;-81
2023/12/01 06:20:44;;;;;;;;;;;4.20;99.90;;;;;;2629784;39;20961;-82
2023/12/01 06:23:15;;;;;;;;;;;3.00;99.90;;;;;;2629451;54;19927;-82
2023/12/01 06:25:46;;;;;;;;;;;4.10;99.90;;;;;;2629426;47;19942;-82
2023/12/01 06:28:16;;;;;;;;;;;3.10;99.90;;;;;;2629613;54;19971;-82
2023/12/01 06:30:59;;;;;;;;;;;4.30;99.90;;;;;;2629487;54;19927;-82
2023/12/01 06:33:50;;;;;;;;;;;3.10;99.90;;;;;;2629259;47;19969;-82
2023/12/01 06:36:29;;;;;;;;;;;3.00;99.90;;;;;;2629386;46;19943;-82
2023/12/01 06:38:59;;;;;;;;;;;3.00;99.90;;;;;;2629416;54;19949;-84
2023/12/01 06:41:29;;;;;;;;;;;3.00;99.90;;;;;;2629155;47;19969;-84
2023/12/01 06:43:59;;;;;;;;;;;5.00;99.90;;;;;;2629633;54;19965;-87
2023/12/01 06:46:29;;;;;;;;;;;3.00;99.90;;;;;;2629913;46;19943;-87
2023/12/01 06:49:02;;;;;;;;;;;2.90;99.90;;;;;;2629790;47;19934;-87
2023/12/01 06:51:32;;;;;;;;;;;3.30;99.90;;;;;;2629807;54;19965;-85
2023/12/01 06:54:02;;;;;;;;;;;3.00;99.90;;;;;;2629851;54;19927;-87
2023/12/01 06:56:32;;;;;;;;;;;3.70;99.90;;;;;;2629594;47;19948;-87
2023/12/01 06:59:02;;;;;;;;;;;3.00;99.90;;;;;;2640366;31;20687;-85
2023/12/01 07:01:32;;;;;;;;;;;3.10;99.90;;;;;;2629727;54;19949;-86
2023/12/01 07:04:07;;;;;;;;;;;3.10;99.90;;;;;;2628588;47;19950;-85
2023/12/01 07:06:38;;;;;;;;;;;3.60;99.90;;;;;;2628282;54;20751;-68
2023/12/01 07:09:07;;;;;;;;;;;4.00;99.90;;;;;;2616513;54;19943;-68
2023/12/01 07:11:37;;;;;;;;;;;3.10;99.90;;;;;;2615927;54;19950;-69
2023/12/01 07:14:07;;;;;;;;;;;3.10;99.90;;;;;;2615686;47;19950;-67
2023/12/01 07:16:36;;;;;;;;;;;3.10;99.90;;;;;;2615115;54;20030;-68
2023/12/01 07:19:09;;;;;;;;;;;3.10;99.90;;;;;;2615002;54;19951;-71
2023/12/01 07:21:39;;;;;;;;;;;3.00;99.90;;;;;;2615987;47;19981;-69
2023/12/01 07:24:09;;;;;;;;;;;3.10;99.90;;;;;;2614964;47;19951;-70
2023/12/01 07:26:39;;;;;;;;;;;3.20;99.90;;;;;;2616303;54;20025;-70
2023/12/01 07:29:09;;;;;;;;;;;3.20;99.90;;;;;;2615240;54;19957;-70
2023/12/01 07:31:38;;;;;;;;;;;3.20;99.90;;;;;;2616145;54;19942;-70
2023/12/01 07:34:11;;;;;;;;;;;3.30;99.90;;;;;;2615966;50;19993;-70
2023/12/01 07:36:41;;;;;;;;;;;3.30;99.90;;;;;;2616194;54;19963;-71
2023/12/01 07:39:11;;;;;;;;;;;3.30;99.90;;;;;;2615079;47;19946;-70
2023/12/01 07:41:41;;;;;;;;;;;3.40;99.90;;;;;;2613690;47;19947;-69
2023/12/01 07:44:11;;;;;;;;;;;3.40;99.90;;;;;;2611640;47;19946;-69
2023/12/01 07:46:41;;;;;;;;;;;4.10;99.90;;;;;;2612383;54;19979;-67
2023/12/01 07:49:14;;;;;;;;;;;3.40;99.90;;;;;;2611796;47;19953;-68
2023/12/01 07:51:43;;;;;;;;;;;3.40;99.90;;;;;;2613327;53;20019;-68
2023/12/01 07:54:13;;;;;;;;;;;3.40;99.90;;;;;;2613644;47;19947;-67
2023/12/01 07:56:43;;;;;;;;;;;3.30;99.90;;;;;;2615896;54;19946;-68
2023/12/01 07:59:13;;;;;;;;;;;3.20;99.90;;;;;;2615322;47;19945;-69
2023/12/01 08:01:42;;;;;;;;;;;3.20;99.90;;;;;;2616455;47;19950;-67
2023/12/01 08:04:15;;;;;;;;;;;3.20;99.90;;;;;;2615773;54;19953;-68
2023/12/01 08:06:45;;;;;;;;;;;3.20;99.90;;;;;;2616486;39;20369;-68
2023/12/01 08:09:16;;;;;;;;;;;3.20;99.90;;;;;;2615646;54;19954;-68
2023/12/01 08:11:46;;;;;;;;;;;3.20;99.90;;;;;;2615775;47;20022;-68
2023/12/01 08:14:16;;;;;;;;;;;3.10;99.90;;;;;;2615862;54;19939;-68
2023/12/01 08:16:45;;;;;;;;;;;3.10;99.90;;;;;;2615569;46;19973;-67
2023/12/01 08:19:18;;;;;;;;;;;3.00;99.90;;;;;;2616071;47;19977;-67
2023/12/01 08:21:47;;;;;;;;;;;3.00;99.90;;;;;;2615523;54;20445;-68
2023/12/01 08:24:17;;;;;;;;;;;2.90;99.90;;;;;;2615439;54;20457;-68
2023/12/01 08:27:00;;;;;;;;;;;3.00;99.90;;;;;;2617015;47;19954;-69
2023/12/01 08:29:29;;;;;;;;;;;3.10;99.90;;;;;;2616350;54;19953;-68
2023/12/01 08:32:00;;;;;;;;;;;3.20;99.90;;;;;;2615136;54;19953;-69
2023/12/01 08:34:32;;;;;;;;;;;3.30;99.90;;;;;;2615891;54;19946;-70
2023/12/01 08:37:02;;;;;;;;;;;3.30;99.90;;;;;;2615855;54;19946;-69
2023/12/01 08:39:32;;;;;;;;;;;3.30;99.90;;;;;;2614198;54;19950;-70
2023/12/01 08:42:02;;;;;;;;;;;3.20;99.90;;;;;;2614246;31;20586;-69
2023/12/01 08:44:32;;;;;;;;;;;3.20;99.90;;;;;;2615375;47;19954;-69
2023/12/01 08:47:02;;;;;;;;;;;3.10;99.90;;;;;;2619358;54;19962;-69
2023/12/01 08:49:35;;;;;;;;;;;3.10;99.90;;;;;;2619113;54;20041;-68
2023/12/01 08:52:06;;;;;;;;;;;3.20;99.90;;;;;;2619415;47;19946;-69
2023/12/01 08:54:36;;;;;;;;;;;3.20;99.90;;;;;;2617387;49;19953;-70
2023/12/01 08:57:07;;;;;;;;;;;3.20;99.90;;;;;;2616332;54;19954;-69
2023/12/01 08:59:37;;;;;;;;;;;3.30;99.90;;;;;;2616142;54;19938;-68
2023/12/01 09:02:06;;;;;;;;;;;3.20;99.90;;;;;;2615469;39;20669;-69
2023/12/01 09:04:45;;;;;;;;;;;3.20;99.90;;;;;;2615685;54;19950;-69
2023/12/01 09:07:15;;;;;;;;;;;3.10;99.90;;;;;;2616484;47;20002;-69
2023/12/01 09:09:44;;;;;;;;;;;3.00;99.90;;;;;;2614541;54;19958;-70
2023/12/01 09:12:16;;;;;;;;;;;3.00;99.90;;;;;;2615728;54;19947;-68
2023/12/01 09:14:46;;;;;;;;;;;3.00;99.90;;;;;;2614665;54;20030;-69
2023/12/01 09:17:15;;;;;;;;;;;3.10;99.90;;;;;;2616261;54;19951;-68
2023/12/01 09:19:48;;;;;;;;;;;3.00;99.90;;;;;;2615903;39;20373;-68
2023/12/01 09:22:18;;;;;;;;;;;3.00;99.90;;;;;;2616875;54;19953;-68
2023/12/01 09:24:48;;;;;;;;;;;3.00;99.90;;;;;;2616124;46;19962;-69
2023/12/01 09:27:21;;;;;;;;;;;3.00;99.90;;;;;;2613355;46;19946;-68
2023/12/01 09:29:51;;;;;;;;;;;3.00;99.90;;;;;;2615832;54;19939;-70
2023/12/01 09:32:21;;;;;;;;;;;3.10;99.90;;;;;;2614625;54;19954;-68
2023/12/01 09:34:53;;;;;;;;;;;3.20;99.90;;;;;;2613894;54;19947;-69
2023/12/01 09:37:23;;;;;;;;;;;3.20;99.90;;;;;;2615521;54;19957;-67
2023/12/01 09:39:53;;;;;;;;;;;3.20;99.90;;;;;;2615038;54;19989;-68
2023/12/01 09:42:23;;;;;;;;;;;3.00;99.90;;;;;;2615700;54;19950;-70
2023/12/01 09:44:57;;;;;;;;;;;3.00;99.90;;;;;;2615595;54;20483;-68
2023/12/01 09:47:29;;;;;;;;;;;2.90;99.90;;;;;;2615781;54;20480;-69
2023/12/01 09:50:02;;;;;;;;;;;3.00;99.90;;;;;;2615471;47;20469;-71
2023/12/01 09:52:32;;;;;;;;;;;3.00;99.90;;;;;;2615477;47;19950;-71
2023/12/01 09:55:04;;;;;;;;;;;3.00;99.90;;;;;;2615782;47;19954;-70
2023/12/01 09:57:38;;;;;;;;;;;3.10;99.90;;;;;;2615622;47;19946;-70
2023/12/01 10:00:11;;;;;;;;;;;3.10;99.90;;;;;;2615032;39;20341;-70
2023/12/01 10:02:41;;;;;;;;;;;3.10;99.90;;;;;;2607162;54;20099;-70
2023/12/01 10:05:14;;;;;;;;;;;3.10;99.90;;;;;;2593016;54;19977;-70
2023/12/01 10:07:44;;;;;;;;;;;3.00;99.90;;;;;;2597279;54;19975;-69
2023/12/01 10:10:21;;;;;;;;;;;3.10;99.90;;;;;;2597361;54;19946;-70
2023/12/01 10:12:58;;;;;;;;;;;3.20;99.90;;;;;;2598627;46;19973;-69
2023/12/01 10:15:29;;;;;;;;;;;3.20;99.90;;;;;;2599859;47;19950;-70
2023/12/01 10:18:10;;;;;;;;;;;3.30;99.90;;;;;;2598282;54;20577;-69
2023/12/01 10:21:02;;;;;;;;;;;4.40;99.90;;;;;;2597120;47;20632;-70
2023/12/01 10:23:36;;;;;;;;;;;3.30;99.90;;;;;;2598381;47;19958;-70
2023/12/01 10:26:07;;;;;;;;;;;3.30;99.90;;;;;;2599643;47;19946;-71
2023/12/01 10:28:43;;;;;;;;;;;3.30;99.90;;;;;;2598346;54;19954;-70
2023/12/01 10:31:16;;;;;;;;;;;3.30;99.90;;;;;;2598648;54;20085;-70
2023/12/01 10:33:49;;;;;;;;;;;3.30;99.90;;;;;;2598330;47;19965;-71
2023/12/01 10:36:22;;;;;;;;;;;3.30;99.90;;;;;;2598680;46;19966;-70
2023/12/01 10:38:52;;;;;;;;;;;3.40;99.90;;;;;;2597166;47;19950;-71
2023/12/01 10:41:23;;;;;;;;;;;3.40;99.90;;;;;;2596839;54;20038;-69
2023/12/01 10:43:56;;;;;;;;;;;3.40;99.90;;;;;;2597130;54;20791;-71
2023/12/01 10:46:26;;;;;;;;;;;3.40;99.90;;;;;;2597971;50;19950;-70
2023/12/01 10:48:57;;;;;;;;;;;3.40;99.90;;;;;;2596940;47;20006;-69
2023/12/01 10:51:30;;;;;;;;;;;3.40;99.90;;;;;;2598328;39;20498;-70
2023/12/01 10:54:00;;;;;;;;;;;3.50;99.90;;;;;;2597256;50;19951;-71
2023/12/01 10:56:31;;;;;;;;;;;3.40;99.90;;;;;;2596904;47;19978;-71
2023/12/01 10:59:03;;;;;;;;;;;3.40;99.90;;;;;;2597838;54;20070;-72
2023/12/01 11:01:33;;;;;;;;;;;3.40;99.90;;;;;;2610620;54;19947;-72
2023/12/01 11:04:03;;;;;;;;;;;3.40;99.90;;;;;;2614494;54;19954;-70
2023/12/01 11:06:40;;;;;;;;;;;3.40;99.90;;;;;;2612788;39;20497;-71
2023/12/01 11:09:14;;;;;;;;;;;3.30;99.90;;;;;;2617317;54;19953;-73
2023/12/01 11:11:47;;;;;;;;;;;3.30;99.90;;;;;;2615917;54;20073;-72
2023/12/01 11:14:18;;;;;;;;;;;3.40;99.90;;;;;;2616018;54;19962;-73
2023/12/01 11:16:49;;;;;;;;;;;3.40;99.90;;;;;;2617793;39;20345;-72
2023/12/01 11:19:19;;;;;;;;;;;3.30;99.90;;;;;;2614096;47;19939;-74
2023/12/01 11:21:58;;;;;;;;;;;3.50;99.90;;;;;;2611673;54;20741;-72
2023/12/01 11:24:31;;;;;;;;;;;3.60;99.90;;;;;;2616839;54;19939;-73
2023/12/01 11:27:03;;;;;;;;;;;3.60;99.90;;;;;;2615896;52;19946;-71
2023/12/01 11:29:33;;;;;;;;;;;3.70;99.90;;;;;;2614665;47;19947;-72
2023/12/01 11:32:03;;;;;;;;;;;3.70;99.90;;;;;;2613220;54;19947;-71
2023/12/01 11:34:35;;;;;;;;;;;3.50;99.90;;;;;;2613986;54;19950;-73
2023/12/01 11:37:07;;;;;;;;;;;3.50;99.90;;;;;;2613785;47;19954;-71
2023/12/01 11:39:37;;;;;;;;;;;3.50;99.90;;;;;;2615225;46;19946;-71
2023/12/01 11:42:15;;;;;;;;;;;3.40;99.90;;;;;;2615478;47;20038;-72
2023/12/01 11:44:45;;;;;;;;;;;3.30;99.90;;;;;;2617726;51;19946;-72
2023/12/01 11:47:15;;;;;;;;;;;3.20;99.90;;;;;;2616145;47;19939;-70
2023/12/01 11:49:46;;;;;;;;;;;3.20;99.90;;;;;;2614792;39;20367;-72
2023/12/01 11:52:20;;;;;;;;;;;3.30;99.90;;;;;;2616706;54;19946;-69
2023/12/01 11:54:51;;;;;;;;;;;3.20;99.90;;;;;;2616330;47;20038;-70
2023/12/01 11:57:21;;;;;;;;;;;3.20;99.90;;;;;;2617413;47;19969;-71
2023/12/01 11:59:51;;;;;;;;;;;3.20;99.90;;;;;;2615374;47;19958;-69
2023/12/01 12:02:31;;;;;;;;;;;3.20;99.90;;;;;;2617132;54;19971;-71
2023/12/01 12:05:05;;;;;;;;;;;3.10;99.90;;;;;;2616091;47;19951;-70
2023/12/01 12:07:38;;;;;;;;;;;3.10;99.90;;;;;;2615704;47;20026;-70
2023/12/01 12:10:09;;;;;;;;;;;3.00;99.90;;;;;;2615423;47;19957;-70
2023/12/01 12:12:38;;;;;;;;;;;3.00;99.90;;;;;;2616245;54;19951;-71
2023/12/01 12:15:08;;;;;;;;;;;3.10;99.90;;;;;;2614345;54;19941;-72
2023/12/01 12:17:38;;;;;;;;;;;3.10;99.90;;;;;;2616307;54;19950;-70
2023/12/01 12:20:09;;;;;;;;;;;3.20;99.90;;;;;;2616029;47;20426;-70
2023/12/01 12:22:47;;;;;;;;;;;3.20;99.90;;;;;;2616489;54;19947;-71
2023/12/01 12:25:17;;;;;;;;;;;0.80;99.90;;;;;;2616026;46;20105;-72
2023/12/01 12:27:47;;;;;;;;;;;3.00;99.90;;;;;;2616923;47;19956;-69
2023/12/01 12:30:18;;;;;;;;;;;2.90;99.90;;;;;;2617604;47;20465;-71
2023/12/01 12:32:48;;;;;;;;;;;2.90;99.90;;;;;;2616593;50;19946;-71
2023/12/01 12:35:18;;;;;;;;;;;2.80;99.90;;;;;;2617545;54;20050;-70
2023/12/01 12:37:50;;;;;;;;;;;2.80;99.90;;;;;;2617827;47;19973;-70
2023/12/01 12:40:20;;;;;;;;;;;2.80;99.90;;;;;;2617123;47;19947;-71
2023/12/01 12:42:59;;;;;;;;;;;2.90;99.90;;;;;;2617142;54;19946;-71
2023/12/01 12:45:30;;;;;;;;;;;2.90;99.90;;;;;;2617716;47;19935;-70
2023/12/01 12:48:05;;;;;;;;;;;2.80;99.90;;;;;;2613589;54;19954;-71
2023/12/01 12:50:40;;;;;;;;;;;2.70;99.90;;;;;;2618510;47;19938;-73
2023/12/01 12:53:12;;;;;;;;;;;2.80;99.90;;;;;;2618100;39;20643;-73
2023/12/01 12:55:42;;;;;;;;;;;2.80;99.90;;;;;;2615640;54;20020;-69
2023/12/01 12:58:13;;;;;;;;;;;2.80;99.90;;;;;;2616689;39;20349;-71
2023/12/01 13:00:43;;;;;;;;;;;2.80;99.90;;;;;;2616286;39;20415;-71
2023/12/01 13:03:12;;;;;;;;;;;2.90;99.90;;;;;;2614238;53;19945;-70
2023/12/01 13:05:42;;;;;;;;;;;3.00;99.90;;;;;;2613933;54;19974;-70
2023/12/01 13:08:15;;;;;;;;;;;3.00;99.90;;;;;;2614671;47;19999;-69
2023/12/01 13:10:44;;;;;;;;;;;3.10;99.90;;;;;;2616566;47;19993;-73
2023/12/01 13:13:14;;;;;;;;;;;3.10;99.90;;;;;;2615420;39;20343;-70
2023/12/01 13:15:43;;;;;;;;;;;3.10;99.90;;;;;;2613218;47;19953;-70
2023/12/01 13:18:14;;;;;;;;;;;3.10;99.90;;;;;;2614132;47;19973;-70
2023/12/01 13:20:44;;;;;;;;;;;3.00;99.90;;;;;;2617445;54;19958;-71
2023/12/01 13:23:17;;;;;;;;;;;3.10;99.90;;;;;;2617120;47;20090;-71
2023/12/01 13:25:46;;;;;;;;;;;3.10;99.90;;;;;;2617609;54;19954;-70
2023/12/01 13:28:16;;;;;;;;;;;3.20;99.90;;;;;;2617709;47;19938;-70
2023/12/01 13:30:46;;;;;;;;;;;3.20;99.90;;;;;;2617606;46;19965;-69
2023/12/01 13:33:15;;;;;;;;;;;3.00;99.90;;;;;;2617177;54;19975;-70
2023/12/01 13:35:45;;;;;;;;;;;2.90;99.90;;;;;;2617996;54;19947;-70
2023/12/01 13:38:17;;;;;;;;;;;2.90;99.90;;;;;;2617366;46;19938;-70
2023/12/01 13:40:47;;;;;;;;;;;2.90;99.90;;;;;;2617319;47;20456;-72
2023/12/01 13:43:17;;;;;;;;;;;3.50;99.90;;;;;;2617274;47;19939;-71
2023/12/01 13:45:47;;;;;;;;;;;3.00;99.90;;;;;;2617795;54;20015;-71
2023/12/01 13:48:16;;;;;;;;;;;3.00;99.90;;;;;;2616569;54;20055;-71
2023/12/01 13:50:46;;;;;;;;;;;3.00;99.90;;;;;;2617910;47;19951;-70
2023/12/01 13:53:18;;;;;;;;;;;3.00;99.90;;;;;;2617633;47;19970;-71
2023/12/01 13:55:51;;;;;;;;;;;3.00;99.90;;;;;;2618176;54;20504;-70
2023/12/01 13:58:34;;;;;;;;;;;3.00;99.90;;;;;;2617432;54;20015;-71
2023/12/01 14:01:03;;;;;;;;;;;3.00;99.90;;;;;;2617341;54;19953;-71
2023/12/01 14:03:33;;;;;;;;;;;2.90;99.90;;;;;;2616790;54;20034;-70
2023/12/01 14:06:03;;;;;;;;;;;2.90;99.90;;;;;;2617862;50;19946;-70
2023/12/01 14:08:35;;;;;;;;;;;2.90;99.90;;;;;;2617947;54;20078;-70
2023/12/01 14:11:05;;;;;;;;;;;2.90;99.90;;;;;;2617195;54;20031;-70
2023/12/01 14:13:34;;;;;;;;;;;2.90;99.90;;;;;;2616915;47;19947;-70
2023/12/01 14:16:04;;;;;;;;;;;2.90;99.90;;;;;;2617523;54;19974;-70
2023/12/01 14:18:34;;;;;;;;;;;2.90;99.90;;;;;;2617216;50;19959;-70
2023/12/01 14:21:04;;;;;;;;;;;2.90;99.90;;;;;;2619842;47;19950;-70
2023/12/01 14:23:37;;;;;;;;;;;3.00;99.90;;;;;;2620848;47;19947;-70
2023/12/01 14:26:06;;;;;;;;;;;3.00;99.90;;;;;;2619273;47;19938;-70
2023/12/01 14:28:36;;;;;;;;;;;3.00;99.90;;;;;;2617352;54;19938;-70
2023/12/01 14:31:06;;;;;;;;;;;3.00;99.90;;;;;;2616624;54;20449;-70
2023/12/01 14:33:36;;;;;;;;;;;2.90;99.90;;;;;;2617170;46;19970;-70
2023/12/01 14:36:06;;;;;;;;;;;2.80;99.90;;;;;;2618038;39;20352;-70
2023/12/01 14:38:39;;;;;;;;;;;2.80;99.90;;;;;;2617629;54;19954;-70
2023/12/01 14:41:10;;;;;;;;;;;2.70;99.90;;;;;;2617136;54;19939;-70
2023/12/01 14:43:39;;;;;;;;;;;2.70;99.90;;;;;;2617530;47;19939;-70
2023/12/01 14:46:09;;;;;;;;;;;2.60;99.90;;;;;;2617739;39;20322;-70
2023/12/01 14:48:39;;;;;;;;;;;2.40;99.90;;;;;;2617216;47;19950;-70
2023/12/01 14:51:09;;;;;;;;;;;2.40;99.90;;;;;;2616339;54;19951;-70
2023/12/01 14:53:42;;;;;;;;;;;2.40;99.90;;;;;;2617692;47;19950;-70
2023/12/01 14:56:12;;;;;;;;;;;2.40;99.90;;;;;;2616866;48;19954;-70
2023/12/01 14:58:42;;;;;;;;;;;2.50;99.90;;;;;;2616664;54;20017;-70
2023/12/01 15:01:12;;;;;;;;;;;2.50;99.90;;;;;;2615889;47;19953;-70
2023/12/01 15:03:44;;;;;;;;;;;2.50;99.90;;;;;;2616730;47;19997;-71
2023/12/01 15:06:14;;;;;;;;;;;2.50;99.90;;;;;;2617141;54;19946;-69
2023/12/01 15:08:46;;;;;;;;;;;2.50;99.90;;;;;;2616659;47;19947;-70
2023/12/01 15:11:16;;;;;;;;;;;2.50;99.90;;;;;;2616004;54;19953;-71
2023/12/01 15:13:46;;;;;;;;;;;2.50;99.90;;;;;;2616486;49;19993;-71
2023/12/01 15:16:18;;;;;;;;;;;3.20;99.90;;;;;;2617186;54;20467;-71
2023/12/01 15:18:48;;;;;;;;;;;2.40;99.90;;;;;;2616879;47;19947;-71
2023/12/01 15:21:17;;;;;;;;;;;2.50;99.90;;;;;;2616922;54;20078;-71
2023/12/01 15:23:50;;;;;;;;;;;2.60;99.90;;;;;;2617476;46;19962;-71
2023/12/01 15:26:19;;;;;;;;;;;2.60;99.90;;;;;;2616928;54;19958;-71
2023/12/01 15:28:49;;;;;;;;;;;2.60;99.90;;;;;;2616627;54;19950;-70
2023/12/01 15:31:19;;;;;;;;;;;2.50;99.90;;;;;;2616899;54;19939;-71
2023/12/01 15:33:48;;;;;;;;;;;2.50;99.90;;;;;;2616829;49;20079;-71
2023/12/01 15:36:18;;;;;;;;;;;2.50;99.90;;;;;;2617421;54;19951;-71
2023/12/01 15:38:50;;;;;;;;;;;2.40;99.90;;;;;;2616934;47;19947;-70
2023/12/01 15:41:20;;;;;;;;;;;2.20;99.90;;;;;;2616565;47;19953;-70
2023/12/01 15:43:50;;;;;;;;;;;2.20;99.90;;;;;;2616610;54;19939;-70
2023/12/01 15:46:20;;;;;;;;;;;2.20;99.90;;;;;;2617058;47;19946;-70
2023/12/01 15:48:50;;;;;;;;;;;2.20;99.90;;;;;;2616657;47;19989;-71
2023/12/01 15:51:19;;;;;;;;;;;2.20;99.90;;;;;;2616857;47;19955;-70
2023/12/01 15:53:52;;;;;;;;;;;2.30;99.90;;;;;;2617270;54;19974;-72
2023/12/01 15:56:21;;;;;;;;;;;2.20;99.90;;;;;;2616436;54;20460;-71
2023/12/01 15:58:55;;;;;;;;;;;2.20;99.90;;;;;;2617251;47;19946;-71
2023/12/01 16:01:25;;;;;;;;;;;2.10;99.90;;;;;;2616657;47;20022;-71
2023/12/01 16:03:55;;;;;;;;;;;2.10;99.90;;;;;;2616742;54;19947;-71
2023/12/01 16:06:24;;;;;;;;;;;2.10;99.90;;;;;;2617091;47;19942;-70
2023/12/01 16:08:57;;;;;;;;;;;2.10;99.90;;;;;;2617286;47;19951;-70
2023/12/01 16:11:27;;;;;;;;;;;2.20;99.90;;;;;;2615977;47;19954;-70
2023/12/01 16:13:57;;;;;;;;;;;2.10;99.90;;;;;;2617417;46;19985;-70
2023/12/01 16:16:26;;;;;;;;;;;2.10;99.90;;;;;;2616920;54;19946;-71
2023/12/01 16:18:56;;;;;;;;;;;2.10;99.90;;;;;;2617017;54;19942;-71
2023/12/01 16:21:26;;;;;;;;;;;2.10;99.90;;;;;;2616996;54;19949;-70
2023/12/01 16:23:58;;;;;;;;;;;2.10;99.90;;;;;;2617740;54;19946;-71
2023/12/01 16:26:28;;;;;;;;;;;2.10;99.90;;;;;;2617502;54;20050;-71
2023/12/01 16:28:58;;;;;;;;;;;2.10;99.90;;;;;;2617984;54;20051;-71
2023/12/01 16:31:27;;;;;;;;;;;2.00;99.90;;;;;;2614484;54;19938;-70
2023/12/01 16:33:58;;;;;;;;;;;2.00;99.90;;;;;;2616503;47;20113;-69
2023/12/01 16:36:28;;;;;;;;;;;2.00;99.90;;;;;;2612956;54;19954;-69
2023/12/01 16:39:04;;;;;;;;;;;1.90;99.90;;;;;;2613902;47;20011;-69
2023/12/01 16:41:34;;;;;;;;;;;1.90;99.90;;;;;;2613692;47;19985;-70
2023/12/01 16:44:04;;;;;;;;;;;1.80;99.90;;;;;;2616745;54;19946;-70
2023/12/01 16:46:33;;;;;;;;;;;1.80;99.90;;;;;;2617569;47;19947;-70
2023/12/01 16:49:03;;;;;;;;;;;1.90;99.90;;;;;;2613307;39;20364;-71
2023/12/01 16:51:33;;;;;;;;;;;1.90;99.90;;;;;;2616247;47;19947;-70
2023/12/01 16:54:05;;;;;;;;;;;1.90;99.90;;;;;;2616125;54;19946;-69
2023/12/01 16:56:35;;;;;;;;;;;1.90;99.90;;;;;;2615052;54;20022;-69
2023/12/01 16:59:05;;;;;;;;;;;1.90;99.90;;;;;;2617598;47;19953;-70
2023/12/01 17:01:34;;;;;;;;;;;1.90;99.90;;;;;;2616449;47;19950;-68
2023/12/01 17:04:04;;;;;;;;;;;1.80;99.90;;;;;;2615312;46;19959;-70
2023/12/01 17:06:34;;;;;;;;;;;2.70;99.90;;;;;;2616179;47;19945;-71
2023/12/01 17:09:06;;;;;;;;;;;1.80;99.90;;;;;;2615725;47;19951;-71
2023/12/01 17:11:37;;;;;;;;;;;1.80;99.90;;;;;;2614955;47;19946;-72
2023/12/01 17:14:07;;;;;;;;;;;1.70;99.90;;;;;;2616596;47;19950;-71
2023/12/01 17:16:36;;;;;;;;;;;1.70;99.90;;;;;;2616249;47;19945;-71
2023/12/01 17:21:34;;;;;;;;;;;1.70;99.90;;;;;;2615378;54;19950;-71
2023/12/01 17:24:07;;;;;;;;;;;1.60;99.90;;;;;;2615115;47;20097;-70
2023/12/01 17:26:36;;;;;;;;;;;1.60;99.90;;;;;;2615137;46;19947;-70
2023/12/01 17:29:06;;;;;;;;;;;1.70;99.90;;;;;;2614426;54;19947;-70
2023/12/01 17:31:47;;;;;;;;;;;1.70;99.90;;;;;;2615702;46;20062;-69
2023/12/01 17:34:16;;;;;;;;;;;1.70;99.90;;;;;;2614057;46;19969;-69
2023/12/01 17:36:46;;;;;;;;;;;1.80;99.90;;;;;;2616466;39;20369;-70
2023/12/01 17:39:19;;;;;;;;;;;1.70;99.90;;;;;;2615667;47;19939;-71
2023/12/01 17:41:49;;;;;;;;;;;1.70;99.90;;;;;;2615753;54;19975;-72
2023/12/01 17:44:19;;;;;;;;;;;1.70;99.90;;;;;;2615014;47;19978;-71
2023/12/01 17:46:49;;;;;;;;;;;1.80;99.90;;;;;;2615520;47;19962;-71